createdAt,value
2023-02-11T00:01:27.750Z,32.70
2023-02-11T00:03:55.590Z,32.88
2023-02-11T00:06:22.844Z,30.65
2023-02-11T00:08:50.424Z,32.13
2023-02-11T00:11:19.977Z,34.20
2023-02-11T00:13:47.573Z,32.25
2023-02-11T00:16:18.015Z,33.60
2023-02-11T00:18:45.998Z,31.30
2023-02-11T00:21:19.568Z,30.65
2023-02-11T00:23:47.099Z,30.75
2023-02-11T00:26:17.276Z,31.83
2023-02-11T00:28:44.755Z,31.27
2023-02-11T00:31:12.893Z,31.38
2023-02-11T00:33:41.893Z,31.80
2023-02-11T00:36:12.039Z,32.70
2023-02-11T00:38:39.447Z,31.90
2023-02-11T00:41:07.774Z,31.58
2023-02-11T00:43:36.437Z,32.00
2023-02-11T00:46:07.203Z,32.17
2023-02-11T00:48:34.628Z,31.25
2023-02-11T00:51:02.400Z,30.27
2023-02-11T00:53:29.715Z,31.35
2023-02-11T00:55:57.191Z,31.48
2023-02-11T00:58:24.772Z,30.77
2023-02-11T01:00:52.347Z,30.30
2023-02-11T01:03:19.573Z,31.02
2023-02-11T01:05:47.205Z,31.13
2023-02-11T01:08:14.627Z,31.10
2023-02-11T01:10:41.935Z,32.40
2023-02-11T01:13:09.210Z,31.70
2023-02-11T01:15:36.504Z,29.45
2023-02-11T01:18:05.466Z,30.65
2023-02-11T01:20:32.836Z,31.13
2023-02-11T01:23:00.039Z,32.05
2023-02-11T01:25:27.257Z,31.20
2023-02-11T01:27:54.527Z,32.15
2023-02-11T01:30:21.892Z,31.75
2023-02-11T01:32:49.105Z,30.25
2023-02-11T01:35:16.526Z,31.05
2023-02-11T01:37:43.954Z,31.17
2023-02-11T01:40:18.010Z,29.95
2023-02-11T01:42:45.210Z,30.90
2023-02-11T01:45:57.677Z,30.52
2023-02-11T01:48:30.434Z,31.98
2023-02-11T01:51:06.026Z,30.05
2023-02-11T01:53:52.148Z,31.35
2023-02-11T01:56:38.921Z,31.38
2023-02-11T01:59:14.556Z,31.67
2023-02-11T02:01:44.157Z,32.38
2023-02-11T02:04:12.205Z,31.27
2023-02-11T02:06:51.221Z,30.33
2023-02-11T02:09:23.877Z,32.00
2023-02-11T02:11:51.763Z,32.90
2023-02-11T02:14:19.014Z,32.53
2023-02-11T02:16:46.265Z,34.22
2023-02-11T02:19:41.186Z,31.65
2023-02-11T02:22:17.454Z,31.60
2023-02-11T02:24:49.412Z,31.30
2023-02-11T02:27:44.322Z,33.92
2023-02-11T02:30:11.381Z,33.22
2023-02-11T02:33:07.904Z,34.40
2023-02-11T02:36:02.934Z,34.75
2023-02-11T02:38:44.709Z,33.50
2023-02-11T02:41:14.387Z,33.47
2023-02-11T02:43:44.778Z,33.53
2023-02-11T02:46:19.020Z,34.60
2023-02-11T02:48:47.191Z,36.58
2023-02-11T02:51:27.464Z,33.47
2023-02-11T02:54:36.892Z,33.88
2023-02-11T02:57:23.003Z,34.13
2023-02-11T03:00:27.956Z,34.10
2023-02-11T03:03:10.145Z,34.88
2023-02-11T03:05:48.212Z,34.13
2023-02-11T03:08:30.650Z,33.50
2023-02-11T03:10:58.782Z,35.22
2023-02-11T03:13:33.405Z,36.17
2023-02-11T03:16:11.538Z,36.47
2023-02-11T03:18:41.849Z,37.13
2023-02-11T03:21:10.155Z,35.03
2023-02-11T03:23:50.754Z,37.72
2023-02-11T03:26:32.420Z,37.17
2023-02-11T03:29:20.952Z,37.35
2023-02-11T03:31:57.043Z,38.10
2023-02-11T03:34:44.351Z,36.65
2023-02-11T03:37:22.125Z,38.30
2023-02-11T03:40:01.601Z,39.75
2023-02-11T03:42:34.464Z,37.95
2023-02-11T03:45:08.758Z,38.75
2023-02-11T03:47:38.935Z,39.25
2023-02-11T03:50:09.299Z,38.58
2023-02-11T03:52:37.996Z,37.90
2023-02-11T03:55:12.413Z,37.63
2023-02-11T03:57:40.219Z,38.78
2023-02-11T04:00:08.733Z,38.95
2023-02-11T04:02:37.010Z,41.43
2023-02-11T04:05:05.284Z,39.65
2023-02-11T04:07:32.657Z,38.88
2023-02-11T04:09:59.964Z,38.47
2023-02-11T04:12:27.439Z,40.67
2023-02-11T04:14:54.672Z,39.45
2023-02-11T04:17:21.882Z,38.72
2023-02-11T04:19:49.086Z,39.70
2023-02-11T04:22:16.338Z,39.58
2023-02-11T04:24:44.107Z,40.00
2023-02-11T04:27:11.321Z,41.10
2023-02-11T04:29:38.604Z,40.67
2023-02-11T04:32:05.822Z,41.10
2023-02-11T04:34:33.062Z,40.05
2023-02-11T04:37:00.271Z,39.75
2023-02-11T04:39:27.510Z,39.10
2023-02-11T04:41:54.661Z,40.22
2023-02-11T04:44:21.944Z,42.58
2023-02-11T04:46:49.251Z,41.83
2023-02-11T04:49:17.410Z,42.25
2023-02-11T04:51:46.995Z,41.67
2023-02-11T04:54:16.384Z,44.10
2023-02-11T04:56:43.648Z,41.33
2023-02-11T04:59:11.822Z,43.15
2023-02-11T05:01:39.293Z,44.28
2023-02-11T05:04:06.564Z,42.72
2023-02-11T05:06:33.814Z,44.95
2023-02-11T05:09:01.138Z,44.53
2023-02-11T05:11:28.404Z,43.63
2023-02-11T05:13:55.789Z,41.40
2023-02-11T05:16:23.123Z,43.30
2023-02-11T05:18:52.460Z,43.70
2023-02-11T05:21:20.101Z,43.60
2023-02-11T05:23:47.608Z,45.15
2023-02-11T05:26:15.640Z,45.03
2023-02-11T05:28:43.081Z,45.05
2023-02-11T05:31:11.079Z,46.30
2023-02-11T05:33:38.484Z,46.47
2023-02-11T05:36:10.521Z,46.75
2023-02-11T05:38:38.369Z,46.00
2023-02-11T05:41:06.346Z,46.17
2023-02-11T05:43:35.374Z,48.15
2023-02-11T05:46:03.530Z,47.20
2023-02-11T05:48:31.309Z,47.60
2023-02-11T05:50:58.610Z,47.17
2023-02-11T05:53:25.899Z,48.58
2023-02-11T05:55:53.515Z,47.42
2023-02-11T05:58:20.803Z,46.90
2023-02-11T06:00:48.033Z,49.45
2023-02-11T06:03:15.304Z,48.30
2023-02-11T06:05:44.134Z,48.22
2023-02-11T06:08:11.409Z,48.33
2023-02-11T06:10:38.804Z,48.78
2023-02-11T06:13:06.036Z,47.83
2023-02-11T06:15:33.258Z,48.63
2023-02-11T06:18:00.482Z,48.80
2023-02-11T06:20:27.732Z,49.63
2023-02-11T06:22:54.958Z,47.20
2023-02-11T06:25:22.158Z,50.72
2023-02-11T06:27:49.384Z,49.10
2023-02-11T06:30:16.579Z,49.90
2023-02-11T06:32:45.492Z,50.80
2023-02-11T06:37:41.958Z,49.47
2023-02-11T06:40:10.071Z,49.33
2023-02-11T06:42:39.351Z,52.65
2023-02-11T06:47:36.612Z,50.55
2023-02-11T06:50:03.996Z,51.20
2023-02-11T06:52:31.427Z,50.45
2023-02-11T06:54:58.657Z,53.60
2023-02-11T06:57:25.867Z,52.90
2023-02-11T06:59:53.108Z,51.80
2023-02-11T07:02:21.101Z,52.65
2023-02-11T07:04:48.596Z,50.63
2023-02-11T07:07:15.941Z,50.83
2023-02-11T07:09:43.145Z,51.35
2023-02-11T07:12:11.132Z,50.15
2023-02-11T07:14:38.503Z,52.05
2023-02-11T07:17:05.885Z,54.70
2023-02-11T07:19:33.075Z,49.80
2023-02-11T07:22:00.297Z,52.58
2023-02-11T07:24:27.589Z,49.80
2023-02-11T07:26:55.146Z,50.42
2023-02-11T07:29:22.399Z,51.60
2023-02-11T07:31:50.289Z,49.83
2023-02-11T07:34:17.559Z,51.67
2023-02-11T07:36:45.170Z,51.30
2023-02-11T07:39:12.817Z,50.20
2023-02-11T07:41:40.077Z,50.88
2023-02-11T07:44:07.324Z,51.03
2023-02-11T07:46:36.864Z,48.53
2023-02-11T07:49:04.252Z,51.88
2023-02-11T07:51:31.755Z,49.50
2023-02-11T07:53:59.992Z,47.13
2023-02-11T07:56:28.273Z,48.45
2023-02-11T07:58:56.773Z,49.90
2023-02-11T08:01:28.290Z,49.97
2023-02-11T08:04:00.309Z,47.38
2023-02-11T08:06:30.212Z,48.88
2023-02-11T08:08:57.450Z,47.58
2023-02-11T08:11:27.272Z,46.97
2023-02-11T08:13:55.641Z,47.00
2023-02-11T08:16:34.359Z,47.55
2023-02-11T08:19:04.125Z,44.13
2023-02-11T08:21:31.519Z,45.90
2023-02-11T08:23:58.901Z,46.58
2023-02-11T08:26:28.949Z,45.03
2023-02-11T08:28:58.024Z,45.65
2023-02-11T08:31:27.575Z,47.10
2023-02-11T08:33:57.913Z,42.25
2023-02-11T08:36:29.086Z,43.38
2023-02-11T08:39:12.158Z,44.30
2023-02-11T08:41:45.337Z,43.85
2023-02-11T08:44:12.879Z,42.00
2023-02-11T08:46:40.563Z,44.78
2023-02-11T08:49:07.806Z,43.90
2023-02-11T08:51:35.110Z,42.83
2023-02-11T08:54:02.387Z,44.70
2023-02-11T08:56:31.614Z,43.97
2023-02-11T08:59:00.351Z,42.72
2023-02-11T09:01:29.937Z,44.38
2023-02-11T09:03:58.123Z,43.92
2023-02-11T09:06:26.469Z,42.03
2023-02-11T09:08:56.604Z,42.17
2023-02-11T09:11:27.979Z,43.55
2023-02-11T09:13:55.183Z,43.58
2023-02-11T09:16:24.901Z,41.97
2023-02-11T09:18:52.402Z,42.38
2023-02-11T09:21:20.193Z,41.17
2023-02-11T09:23:48.531Z,42.63
2023-02-11T09:26:21.917Z,42.03
2023-02-11T09:28:51.403Z,39.63
2023-02-11T09:31:21.708Z,43.47
2023-02-11T09:33:51.021Z,41.08
2023-02-11T09:38:49.914Z,37.78
2023-02-11T09:41:32.041Z,39.83
2023-02-11T09:44:04.854Z,38.65
2023-02-11T09:46:35.611Z,37.55
2023-02-11T09:49:04.690Z,40.03
2023-02-11T09:52:21.422Z,41.38
2023-02-11T09:55:06.618Z,39.45
2023-02-11T09:57:36.174Z,37.00
2023-02-11T10:00:21.093Z,39.72
2023-02-11T10:03:14.022Z,36.92
2023-02-11T10:06:05.863Z,39.17
2023-02-11T10:08:53.205Z,37.20
2023-02-11T10:11:36.847Z,37.97
2023-02-11T10:14:25.170Z,37.83
2023-02-11T10:17:30.026Z,36.70
2023-02-11T10:20:25.201Z,38.40
2023-02-11T10:22:58.681Z,39.03
2023-02-11T10:25:43.147Z,36.42
2023-02-11T10:28:17.560Z,34.03
2023-02-11T10:30:58.142Z,35.60
2023-02-11T10:33:45.361Z,35.17
2023-02-11T10:36:14.184Z,35.92
2023-02-11T10:38:41.648Z,37.60
2023-02-11T10:41:16.783Z,38.20
2023-02-11T10:43:44.262Z,36.70
2023-02-11T10:46:19.430Z,36.83
2023-02-11T10:48:52.911Z,36.67
2023-02-11T10:51:26.837Z,37.92
2023-02-11T10:54:13.818Z,38.38
2023-02-11T10:56:46.131Z,35.15
2023-02-11T10:59:28.057Z,30.98
2023-02-11T11:02:00.690Z,38.25
2023-02-11T11:04:32.120Z,38.47
2023-02-11T11:07:23.865Z,36.97
2023-02-11T11:10:02.610Z,39.35
2023-02-11T11:12:44.802Z,38.40
2023-02-11T11:15:16.384Z,35.35
2023-02-11T11:17:43.608Z,38.65
2023-02-11T11:20:24.597Z,37.22
2023-02-11T11:22:54.981Z,38.85
2023-02-11T11:25:28.374Z,39.35
2023-02-11T11:28:02.881Z,38.67
2023-02-11T11:30:39.374Z,38.05
2023-02-11T11:33:21.792Z,37.78
2023-02-11T11:36:09.660Z,35.08
2023-02-11T11:39:25.344Z,36.95
2023-02-11T11:41:58.644Z,36.78
2023-02-11T11:44:37.195Z,39.90
2023-02-11T11:47:13.580Z,38.90
2023-02-11T11:49:43.503Z,42.72
2023-02-11T11:52:10.706Z,38.03
2023-02-11T11:54:39.391Z,35.58
2023-02-11T11:57:15.987Z,34.08
2023-02-11T11:59:43.382Z,35.63
2023-02-11T12:02:33.873Z,38.17
2023-02-11T12:05:37.850Z,36.35
2023-02-11T12:08:21.703Z,34.85
2023-02-11T12:11:12.933Z,33.05
2023-02-11T12:14:01.114Z,33.83
2023-02-11T12:17:11.361Z,33.25
2023-02-11T12:20:04.762Z,32.17
2023-02-11T12:22:48.797Z,31.17
2023-02-11T12:25:35.855Z,28.88
2023-02-11T12:28:29.919Z,29.88
2023-02-11T12:31:29.146Z,26.88
2023-02-11T12:34:17.346Z,29.33
2023-02-11T12:37:19.449Z,26.77
2023-02-11T12:40:03.499Z,29.05
2023-02-11T12:43:05.031Z,26.23
2023-02-11T12:46:18.472Z,24.40
2023-02-11T12:48:57.845Z,25.60
2023-02-11T12:51:42.787Z,23.35
2023-02-11T12:54:42.186Z,25.80
2023-02-11T12:57:31.142Z,25.55
2023-02-11T13:00:08.652Z,24.58
2023-02-11T13:02:55.101Z,23.65
2023-02-11T13:05:49.433Z,21.50
2023-02-11T13:08:21.649Z,24.00
2023-02-11T13:10:53.401Z,23.85
2023-02-11T13:13:31.918Z,21.23
2023-02-11T13:16:07.884Z,23.47
2023-02-11T13:18:42.916Z,23.33
2023-02-11T13:21:26.736Z,23.33
2023-02-11T13:24:20.098Z,22.98
2023-02-11T13:27:15.455Z,23.10
2023-02-11T13:30:18.782Z,22.73
2023-02-11T13:32:55.470Z,22.73
2023-02-11T13:35:32.732Z,22.05
2023-02-11T13:38:01.561Z,21.08
2023-02-11T13:40:37.765Z,22.10
2023-02-11T13:43:10.379Z,21.77
2023-02-11T13:45:47.841Z,22.35
2023-02-11T13:48:37.152Z,21.23
2023-02-11T13:53:54.984Z,21.65
2023-02-11T13:56:34.009Z,21.58
2023-02-11T13:59:26.881Z,20.65
2023-02-11T14:02:12.855Z,22.15
2023-02-11T14:05:23.547Z,21.23
2023-02-11T14:08:27.921Z,20.73
2023-02-11T14:11:01.171Z,20.88
2023-02-11T14:13:28.879Z,17.30
2023-02-11T14:16:22.650Z,19.95
2023-02-11T14:18:55.433Z,18.50
2023-02-11T14:21:34.968Z,19.77
2023-02-11T14:24:03.153Z,17.65
2023-02-11T14:26:49.576Z,18.30
2023-02-11T14:29:20.134Z,16.77
2023-02-11T14:31:55.281Z,18.73
2023-02-11T14:34:59.392Z,15.80
2023-02-11T14:37:51.147Z,18.42
2023-02-11T14:40:30.222Z,17.55
2023-02-11T14:43:02.402Z,16.65
2023-02-11T14:45:31.132Z,16.70
2023-02-11T14:48:08.549Z,17.33
2023-02-11T14:50:59.089Z,15.82
2023-02-11T14:53:26.776Z,18.25
2023-02-11T14:55:55.550Z,16.55
2023-02-11T14:58:28.451Z,17.40
2023-02-11T15:01:06.526Z,17.60
2023-02-11T15:03:47.227Z,17.35
2023-02-11T15:06:22.721Z,17.58
2023-02-11T15:09:00.974Z,16.48
2023-02-11T15:11:32.010Z,17.38
2023-02-11T15:14:06.771Z,18.13
2023-02-11T15:16:36.027Z,18.70
2023-02-11T15:21:35.068Z,17.85
2023-02-11T15:27:08.118Z,17.80
2023-02-11T15:29:39.865Z,18.20
2023-02-11T15:32:15.102Z,18.45
2023-02-11T15:34:43.264Z,16.40
2023-02-11T15:37:14.582Z,18.77
2023-02-11T15:39:51.955Z,17.65
2023-02-11T15:42:34.075Z,17.73
2023-02-11T15:45:15.690Z,17.73
2023-02-11T15:47:49.086Z,19.10
2023-02-11T15:50:25.812Z,18.25
2023-02-11T15:52:53.582Z,18.48
2023-02-11T15:55:21.288Z,19.05
2023-02-11T15:57:59.082Z,18.45
2023-02-11T16:00:34.714Z,19.25
2023-02-11T16:03:02.162Z,19.67
2023-02-11T16:05:40.697Z,18.23
2023-02-11T16:08:24.659Z,19.95
2023-02-11T16:11:34.231Z,18.17
2023-02-11T16:14:05.809Z,17.85
2023-02-11T16:16:34.940Z,19.83
2023-02-11T16:19:05.171Z,20.10
2023-02-11T16:21:39.283Z,19.73
2023-02-11T16:24:07.656Z,19.25
2023-02-11T16:26:36.485Z,18.70
2023-02-11T16:29:25.166Z,20.13
2023-02-11T16:31:53.878Z,20.52
2023-02-11T16:34:23.591Z,21.13
2023-02-11T16:36:52.383Z,19.73
2023-02-11T16:39:22.492Z,20.33
2023-02-11T16:41:50.820Z,16.83
2023-02-11T16:44:23.200Z,20.70
2023-02-11T16:46:50.673Z,18.08
2023-02-11T16:49:27.394Z,20.17
2023-02-11T16:51:56.911Z,20.52
2023-02-11T16:54:24.266Z,21.23
2023-02-11T16:56:51.714Z,21.23
2023-02-11T16:59:19.168Z,20.27
2023-02-11T17:01:46.942Z,19.23
2023-02-11T17:04:21.261Z,18.92
2023-02-11T17:06:48.556Z,18.55
2023-02-11T17:09:22.927Z,19.15
2023-02-11T17:11:50.321Z,18.83
2023-02-11T17:14:18.161Z,17.60
2023-02-11T17:16:46.922Z,17.30
2023-02-11T17:19:15.837Z,15.75
2023-02-11T17:21:47.438Z,16.02
2023-02-11T17:24:16.506Z,17.92
2023-02-11T17:26:44.916Z,18.48
2023-02-11T17:29:14.662Z,16.33
2023-02-11T17:31:42.139Z,16.02
2023-02-11T17:34:11.697Z,16.35
2023-02-11T17:36:40.875Z,17.10
2023-02-11T17:39:08.423Z,15.45
2023-02-11T17:41:38.895Z,15.50
2023-02-11T17:44:07.656Z,15.50
2023-02-11T17:46:35.556Z,14.48
2023-02-11T17:49:03.137Z,14.73
2023-02-11T17:51:33.037Z,15.60
2023-02-11T17:54:06.530Z,14.57
2023-02-11T17:56:35.055Z,14.43
2023-02-11T17:59:02.943Z,14.93
2023-02-11T18:01:31.791Z,14.98
2023-02-11T18:03:59.179Z,15.82
2023-02-11T18:06:29.101Z,15.32
2023-02-11T18:08:59.577Z,15.13
2023-02-11T18:11:27.859Z,15.25
2023-02-11T18:13:55.122Z,15.65
2023-02-11T18:16:23.873Z,16.10
2023-02-11T18:18:51.241Z,15.85
2023-02-11T18:21:20.243Z,15.95
2023-02-11T18:23:48.386Z,16.05
2023-02-11T18:26:18.111Z,15.38
2023-02-11T18:28:46.204Z,15.27
2023-02-11T18:31:14.425Z,14.25
2023-02-11T18:33:42.266Z,14.55
2023-02-11T18:36:12.080Z,14.85
2023-02-11T18:38:40.006Z,13.98
2023-02-11T18:41:07.618Z,12.35
2023-02-11T18:43:35.173Z,15.18
2023-02-11T18:46:06.695Z,14.25
2023-02-11T18:48:34.091Z,14.48
2023-02-11T18:51:01.665Z,13.85
2023-02-11T18:53:28.955Z,14.45
2023-02-11T18:55:56.203Z,13.23
2023-02-11T18:58:23.498Z,14.52
2023-02-11T19:00:52.227Z,13.75
2023-02-11T19:03:19.454Z,13.60
2023-02-11T19:05:49.201Z,13.68
2023-02-11T19:08:17.168Z,13.18
2023-02-11T19:10:46.342Z,13.77
2023-02-11T19:13:14.008Z,12.30
2023-02-11T19:15:42.222Z,12.95
2023-02-11T19:18:09.759Z,13.57
2023-02-11T19:20:40.139Z,13.23
2023-02-11T19:23:07.687Z,13.07
2023-02-11T19:25:35.039Z,13.52
2023-02-11T19:28:03.261Z,12.68
2023-02-11T19:30:32.638Z,13.88
2023-02-11T19:35:27.009Z,12.80
2023-02-11T19:37:54.235Z,13.50
2023-02-11T19:40:21.637Z,12.32
2023-02-11T19:42:49.163Z,12.20
2023-02-11T19:45:16.481Z,13.70
2023-02-11T19:47:43.706Z,12.95
2023-02-11T19:50:11.529Z,13.18
2023-02-11T19:52:40.262Z,13.20
2023-02-11T19:55:08.017Z,12.93
2023-02-11T19:57:36.337Z,13.38
2023-02-11T20:00:03.938Z,12.38
2023-02-11T20:02:31.222Z,12.27
2023-02-11T20:05:00.574Z,11.68
2023-02-11T20:09:57.031Z,12.40
2023-02-11T20:12:24.334Z,12.63
2023-02-11T20:14:51.553Z,12.68
2023-02-11T20:17:18.738Z,11.77
2023-02-11T20:19:45.929Z,12.30
2023-02-11T20:22:13.251Z,12.95
2023-02-11T20:24:40.504Z,11.98
2023-02-11T20:27:08.421Z,11.57
2023-02-11T20:29:37.695Z,11.88
2023-02-11T20:34:33.413Z,11.88
2023-02-11T20:37:00.696Z,11.63
2023-02-11T20:39:28.107Z,10.82
2023-02-11T20:41:56.481Z,11.20
2023-02-11T20:44:24.011Z,12.23
2023-02-11T20:46:53.189Z,12.85
2023-02-11T20:49:22.933Z,13.35
2023-02-11T20:51:52.037Z,12.55
2023-02-11T20:54:20.441Z,12.57
2023-02-11T20:56:48.522Z,11.20
2023-02-11T20:59:16.846Z,12.05
2023-02-11T21:01:46.739Z,10.63
2023-02-11T21:04:19.651Z,11.80
2023-02-11T21:06:49.006Z,10.25
2023-02-11T21:09:22.034Z,10.52
2023-02-11T21:11:51.615Z,10.75
2023-02-11T21:14:19.966Z,10.38
2023-02-11T21:16:48.279Z,10.77
2023-02-11T21:19:16.077Z,10.10
2023-02-11T21:21:43.492Z,11.35
2023-02-11T21:24:11.590Z,9.73
2023-02-11T21:26:38.889Z,10.38
2023-02-11T21:29:07.322Z,9.77
2023-02-11T21:31:36.104Z,11.00
2023-02-11T21:34:04.035Z,11.95
2023-02-11T21:36:31.298Z,10.55
2023-02-11T21:38:58.624Z,10.43
2023-02-11T21:41:27.452Z,10.05
2023-02-11T21:43:56.855Z,9.98
2023-02-11T21:46:26.177Z,9.45
2023-02-11T21:51:23.275Z,9.98
2023-02-11T21:53:58.570Z,9.80
2023-02-11T21:56:28.048Z,10.25
2023-02-11T21:58:57.140Z,9.27
2023-02-11T22:01:33.844Z,10.20
2023-02-11T22:04:01.317Z,8.95
2023-02-11T22:06:34.120Z,10.02
2023-02-11T22:09:04.546Z,8.60
2023-02-11T22:11:31.733Z,8.75
2023-02-11T22:13:59.135Z,7.72
2023-02-11T22:16:27.566Z,8.35
2023-02-11T22:18:56.451Z,7.87
2023-02-11T22:21:24.052Z,8.38
2023-02-11T22:23:52.092Z,8.68
2023-02-11T22:26:23.013Z,8.13
2023-02-11T22:28:50.575Z,8.00
2023-02-11T22:31:20.306Z,7.95
2023-02-11T22:33:48.002Z,8.25
2023-02-11T22:36:20.725Z,8.52
2023-02-11T22:38:48.572Z,7.18
2023-02-11T22:41:17.141Z,7.65
2023-02-11T22:43:44.925Z,6.95
2023-02-11T22:46:14.531Z,7.95
2023-02-11T22:48:42.036Z,8.18
2023-02-11T22:51:19.287Z,7.43
2023-02-11T22:53:53.890Z,7.20
2023-02-11T22:56:21.819Z,7.30
2023-02-11T22:58:49.778Z,8.10
2023-02-11T23:01:17.390Z,7.65
2023-02-11T23:03:44.728Z,7.15
2023-02-11T23:06:12.331Z,7.45
2023-02-11T23:08:40.873Z,7.22
2023-02-11T23:11:11.557Z,7.15
2023-02-11T23:13:40.740Z,7.63
2023-02-11T23:16:11.066Z,6.60
2023-02-11T23:18:39.900Z,6.00
2023-02-11T23:21:12.403Z,6.10
2023-02-11T23:23:40.154Z,6.75
2023-02-11T23:26:11.032Z,6.60
2023-02-11T23:28:38.639Z,6.70
2023-02-11T23:31:20.097Z,6.47
2023-02-11T23:33:48.576Z,6.55
2023-02-11T23:36:17.169Z,6.03
2023-02-11T23:38:44.614Z,6.38
2023-02-11T23:41:12.306Z,5.97
2023-02-11T23:43:39.659Z,5.97
2023-02-11T23:46:11.963Z,5.95
2023-02-11T23:48:40.534Z,6.05
2023-02-11T23:51:09.791Z,6.22
2023-02-11T23:53:38.294Z,6.05
2023-02-11T23:56:10.777Z,5.77
2023-02-11T23:58:38.148Z,5.80
